sensor_id;sensor_type;location;lat;lon;timestamp;pressure;altitude;pressure_sealevel;temperature;humidity
20115;BME280;10218;42.874;25.320;2022-08-19T00:00:38;96751.34;;;21.73;100.00
20115;BME280;10218;42.874;25.320;2022-08-19T00:03:06;96750.56;;;21.56;100.00
20115;BME280;10218;42.874;25.320;2022-08-19T00:05:34;96743.84;;;21.64;100.00
20115;BME280;10218;42.874;25.320;2022-08-19T00:08:01;96755.81;;;21.63;100.00
20115;BME280;10218;42.874;25.320;2022-08-19T00:10:29;96759.78;;;21.55;100.00
20115;BME280;10218;42.874;25.320;2022-08-19T00:12:56;96754.13;;;21.40;100.00
20115;BME280;10218;42.874;25.320;2022-08-19T00:15:23;96766.94;;;21.61;98.41
20115;BME280;10218;42.874;25.320;2022-08-19T00:17:50;96758.50;;;21.41;100.00
20115;BME280;10218;42.874;25.320;2022-08-19T00:20:19;96754.44;;;21.22;100.00
20115;BME280;10218;42.874;25.320;2022-08-19T00:22:47;96751.28;;;21.30;100.00
20115;BME280;10218;42.874;25.320;2022-08-19T00:25:16;96754.13;;;21.40;100.00
20115;BME280;10218;42.874;25.320;2022-08-19T00:27:43;96748.88;;;21.33;100.00
20115;BME280;10218;42.874;25.320;2022-08-19T00:30:11;96755.78;;;21.41;100.00
20115;BME280;10218;42.874;25.320;2022-08-19T00:32:39;96765.69;;;21.14;100.00
20115;BME280;10218;42.874;25.320;2022-08-19T00:35:07;96757.56;;;21.14;100.00
20115;BME280;10218;42.874;25.320;2022-08-19T00:37:34;96756.22;;;21.00;100.00
20115;BME280;10218;42.874;25.320;2022-08-19T00:40:04;96753.81;;;21.03;100.00
20115;BME280;10218;42.874;25.320;2022-08-19T00:42:32;96755.75;;;21.03;100.00
20115;BME280;10218;42.874;25.320;2022-08-19T00:44:59;96745.13;;;21.01;100.00
20115;BME280;10218;42.874;25.320;2022-08-19T00:47:27;96748.16;;;21.05;100.00
20115;BME280;10218;42.874;25.320;2022-08-19T00:49:57;96749.81;;;21.06;100.00
20115;BME280;10218;42.874;25.320;2022-08-19T00:52:29;96751.28;;;20.97;100.00
20115;BME280;10218;42.874;25.320;2022-08-19T00:54:59;96754.00;;;20.97;100.00
20115;BME280;10218;42.874;25.320;2022-08-19T00:57:34;96742.94;;;21.03;100.00
20115;BME280;10218;42.874;25.320;2022-08-19T01:00:07;96747.31;;;21.04;100.00
20115;BME280;10218;42.874;25.320;2022-08-19T01:02:37;96741.88;;;21.04;100.00
20115;BME280;10218;42.874;25.320;2022-08-19T01:05:09;96742.91;;;21.15;100.00
20115;BME280;10218;42.874;25.320;2022-08-19T01:07:39;96745.81;;;21.13;100.00
20115;BME280;10218;42.874;25.320;2022-08-19T01:10:10;96746.19;;;21.17;100.00
20115;BME280;10218;42.874;25.320;2022-08-19T01:12:39;96744.38;;;21.06;100.00
20115;BME280;10218;42.874;25.320;2022-08-19T01:15:09;96748.47;;;20.75;100.00
20115;BME280;10218;42.874;25.320;2022-08-19T01:17:38;96741.56;;;20.67;100.00
20115;BME280;10218;42.874;25.320;2022-08-19T01:20:13;96747.00;;;21.01;100.00
20115;BME280;10218;42.874;25.320;2022-08-19T01:22:45;96753.59;;;20.71;100.00
20115;BME280;10218;42.874;25.320;2022-08-19T01:25:17;96750.44;;;21.29;100.00
20115;BME280;10218;42.874;25.320;2022-08-19T01:27:47;96754.50;;;21.27;100.00
20115;BME280;10218;42.874;25.320;2022-08-19T01:30:25;96760.41;;;21.07;100.00
20115;BME280;10218;42.874;25.320;2022-08-19T01:32:53;96752.50;;;20.89;100.00
20115;BME280;10218;42.874;25.320;2022-08-19T01:35:23;96765.09;;;20.95;100.00
20115;BME280;10218;42.874;25.320;2022-08-19T01:37:54;96761.31;;;20.79;100.00
20115;BME280;10218;42.874;25.320;2022-08-19T01:40:25;96762.94;;;20.64;100.00
20115;BME280;10218;42.874;25.320;2022-08-19T01:42:54;96773.47;;;20.60;100.00
20115;BME280;10218;42.874;25.320;2022-08-19T01:45:23;96767.81;;;20.62;100.00
20115;BME280;10218;42.874;25.320;2022-08-19T01:47:51;96770.63;;;20.67;100.00
20115;BME280;10218;42.874;25.320;2022-08-19T01:50:19;96765.09;;;20.78;100.00
20115;BME280;10218;42.874;25.320;2022-08-19T01:52:46;96769.41;;;20.91;100.00
20115;BME280;10218;42.874;25.320;2022-08-19T01:55:17;96761.16;;;20.69;100.00
20115;BME280;10218;42.874;25.320;2022-08-19T01:57:48;96765.50;;;20.54;100.00
20115;BME280;10218;42.874;25.320;2022-08-19T02:00:20;96767.97;;;20.55;100.00
20115;BME280;10218;42.874;25.320;2022-08-19T02:02:48;96766.00;;;20.51;100.00
20115;BME280;10218;42.874;25.320;2022-08-19T02:05:15;96771.97;;;20.53;100.00
20115;BME280;10218;42.874;25.320;2022-08-19T02:07:44;96768.87;;;20.61;100.00
20115;BME280;10218;42.874;25.320;2022-08-19T02:10:17;96779.28;;;20.52;100.00
20115;BME280;10218;42.874;25.320;2022-08-19T02:12:44;96775.13;;;20.61;100.00
20115;BME280;10218;42.874;25.320;2022-08-19T02:15:12;96787.00;;;20.72;100.00
20115;BME280;10218;42.874;25.320;2022-08-19T02:17:40;96776.75;;;20.45;100.00
20115;BME280;10218;42.874;25.320;2022-08-19T02:20:08;96785.34;;;20.42;100.00
20115;BME280;10218;42.874;25.320;2022-08-19T02:22:35;96781.81;;;20.42;100.00
20115;BME280;10218;42.874;25.320;2022-08-19T02:25:03;96772.16;;;20.46;100.00
20115;BME280;10218;42.874;25.320;2022-08-19T02:27:31;96785.44;;;20.47;100.00
20115;BME280;10218;42.874;25.320;2022-08-19T02:30:00;96784.87;;;20.45;100.00
20115;BME280;10218;42.874;25.320;2022-08-19T02:32:27;96788.34;;;20.41;100.00
20115;BME280;10218;42.874;25.320;2022-08-19T02:34:55;96787.59;;;20.45;100.00
20115;BME280;10218;42.874;25.320;2022-08-19T02:37:22;96782.41;;;20.44;100.00
20115;BME280;10218;42.874;25.320;2022-08-19T02:40:08;96776.16;;;20.43;100.00
20115;BME280;10218;42.874;25.320;2022-08-19T02:42:36;96788.44;;;20.46;100.00
20115;BME280;10218;42.874;25.320;2022-08-19T02:45:03;96786.25;;;20.31;100.00
20115;BME280;10218;42.874;25.320;2022-08-19T02:47:31;96783.97;;;20.40;100.00
20115;BME280;10218;42.874;25.320;2022-08-19T02:50:01;96794.41;;;20.31;100.00
20115;BME280;10218;42.874;25.320;2022-08-19T02:52:28;96798.50;;;20.22;100.00
20115;BME280;10218;42.874;25.320;2022-08-19T02:54:55;96799.94;;;20.25;100.00
20115;BME280;10218;42.874;25.320;2022-08-19T02:57:24;96792.16;;;20.17;100.00
20115;BME280;10218;42.874;25.320;2022-08-19T02:59:52;96810.69;;;20.20;100.00
20115;BME280;10218;42.874;25.320;2022-08-19T03:02:19;96807.31;;;20.01;100.00
20115;BME280;10218;42.874;25.320;2022-08-19T03:04:47;96803.47;;;19.85;100.00
20115;BME280;10218;42.874;25.320;2022-08-19T03:07:15;96798.25;;;19.95;100.00
20115;BME280;10218;42.874;25.320;2022-08-19T03:09:42;96804.19;;;20.21;100.00
20115;BME280;10218;42.874;25.320;2022-08-19T03:12:10;96796.78;;;20.16;100.00
20115;BME280;10218;42.874;25.320;2022-08-19T03:14:37;96802.75;;;20.30;100.00
20115;BME280;10218;42.874;25.320;2022-08-19T03:17:05;96807.44;;;20.06;100.00
20115;BME280;10218;42.874;25.320;2022-08-19T03:19:32;96813.75;;;20.12;100.00
20115;BME280;10218;42.874;25.320;2022-08-19T03:21:59;96807.56;;;19.99;100.00
20115;BME280;10218;42.874;25.320;2022-08-19T03:24:27;96814.16;;;20.03;100.00
20115;BME280;10218;42.874;25.320;2022-08-19T03:26:55;96824.06;;;19.86;100.00
20115;BME280;10218;42.874;25.320;2022-08-19T03:29:28;96828.19;;;20.00;100.00
20115;BME280;10218;42.874;25.320;2022-08-19T03:31:55;96827.56;;;20.10;100.00
20115;BME280;10218;42.874;25.320;2022-08-19T03:34:27;96826.78;;;19.86;100.00
20115;BME280;10218;42.874;25.320;2022-08-19T03:36:56;96828.88;;;20.07;100.00
20115;BME280;10218;42.874;25.320;2022-08-19T03:39:25;96829.81;;;20.01;100.00
20115;BME280;10218;42.874;25.320;2022-08-19T03:41:54;96836.06;;;20.02;100.00
20115;BME280;10218;42.874;25.320;2022-08-19T03:44:24;96841.16;;;19.98;100.00
20115;BME280;10218;42.874;25.320;2022-08-19T03:46:55;96839.03;;;20.00;100.00
20115;BME280;10218;42.874;25.320;2022-08-19T03:49:25;96842.25;;;19.74;100.00
20115;BME280;10218;42.874;25.320;2022-08-19T03:51:57;96842.72;;;19.83;100.00
20115;BME280;10218;42.874;25.320;2022-08-19T03:54:27;96841.66;;;19.72;100.00
20115;BME280;10218;42.874;25.320;2022-08-19T03:56:56;96845.31;;;19.78;100.00
20115;BME280;10218;42.874;25.320;2022-08-19T03:59:30;96843.06;;;19.86;100.00
20115;BME280;10218;42.874;25.320;2022-08-19T04:02:00;96840.72;;;19.90;100.00
20115;BME280;10218;42.874;25.320;2022-08-19T04:04:29;96849.19;;;19.93;100.00
20115;BME280;10218;42.874;25.320;2022-08-19T04:06:56;96848.91;;;20.06;100.00
20115;BME280;10218;42.874;25.320;2022-08-19T04:09:24;96840.31;;;19.98;100.00
20115;BME280;10218;42.874;25.320;2022-08-19T04:11:54;96854.13;;;19.96;100.00
20115;BME280;10218;42.874;25.320;2022-08-19T04:14:24;96843.16;;;19.91;100.00
20115;BME280;10218;42.874;25.320;2022-08-19T04:16:52;96851.41;;;19.96;100.00
20115;BME280;10218;42.874;25.320;2022-08-19T04:19:20;96853.44;;;19.89;100.00
20115;BME280;10218;42.874;25.320;2022-08-19T04:21:50;96855.81;;;19.74;100.00
20115;BME280;10218;42.874;25.320;2022-08-19T04:24:18;96854.66;;;19.70;100.00
20115;BME280;10218;42.874;25.320;2022-08-19T04:26:46;96852.87;;;19.64;100.00
20115;BME280;10218;42.874;25.320;2022-08-19T04:29:16;96855.69;;;19.69;100.00
20115;BME280;10218;42.874;25.320;2022-08-19T04:31:44;96843.41;;;19.90;100.00
20115;BME280;10218;42.874;25.320;2022-08-19T04:34:14;96847.06;;;19.84;100.00
20115;BME280;10218;42.874;25.320;2022-08-19T04:36:43;96858.34;;;20.04;100.00
20115;BME280;10218;42.874;25.320;2022-08-19T04:39:15;96862.56;;;20.12;100.00
20115;BME280;10218;42.874;25.320;2022-08-19T04:41:43;96859.38;;;20.26;100.00
20115;BME280;10218;42.874;25.320;2022-08-19T04:44:34;96856.47;;;20.56;100.00
20115;BME280;10218;42.874;25.320;2022-08-19T04:47:02;96862.19;;;20.71;100.00
20115;BME280;10218;42.874;25.320;2022-08-19T04:49:32;96858.41;;;20.72;100.00
20115;BME280;10218;42.874;25.320;2022-08-19T04:51:59;96868.44;;;20.88;100.00
20115;BME280;10218;42.874;25.320;2022-08-19T04:54:27;96860.37;;;20.93;100.00
20115;BME280;10218;42.874;25.320;2022-08-19T04:56:54;96840.81;;;21.08;100.00
20115;BME280;10218;42.874;25.320;2022-08-19T04:59:21;96861.31;;;20.99;100.00
20115;BME280;10218;42.874;25.320;2022-08-19T05:01:49;96860.28;;;21.17;100.00
20115;BME280;10218;42.874;25.320;2022-08-19T05:04:18;96848.78;;;21.43;100.00
20115;BME280;10218;42.874;25.320;2022-08-19T05:06:47;96856.50;;;21.34;100.00
20115;BME280;10218;42.874;25.320;2022-08-19T05:09:15;96859.38;;;21.45;100.00
20115;BME280;10218;42.874;25.320;2022-08-19T05:11:44;96852.03;;;21.45;100.00
20115;BME280;10218;42.874;25.320;2022-08-19T05:14:11;96835.56;;;21.68;100.00
20115;BME280;10218;42.874;25.320;2022-08-19T05:16:41;96862.03;;;21.95;100.00
20115;BME280;10218;42.874;25.320;2022-08-19T05:19:09;96851.16;;;21.95;100.00
20115;BME280;10218;42.874;25.320;2022-08-19T05:21:54;96854.28;;;21.87;100.00
20115;BME280;10218;42.874;25.320;2022-08-19T05:24:41;96853.78;;;22.06;100.00
20115;BME280;10218;42.874;25.320;2022-08-19T05:27:17;96850.06;;;22.34;100.00
20115;BME280;10218;42.874;25.320;2022-08-19T05:29:44;96850.78;;;22.51;100.00
20115;BME280;10218;42.874;25.320;2022-08-19T05:32:11;96841.25;;;22.76;99.48
20115;BME280;10218;42.874;25.320;2022-08-19T05:34:38;96847.63;;;23.13;96.03
20115;BME280;10218;42.874;25.320;2022-08-19T05:37:07;96849.44;;;23.34;93.03
20115;BME280;10218;42.874;25.320;2022-08-19T05:39:36;96854.22;;;23.49;90.60
20115;BME280;10218;42.874;25.320;2022-08-19T05:42:07;96853.78;;;23.67;90.39
20115;BME280;10218;42.874;25.320;2022-08-19T05:44:40;96851.69;;;23.79;89.31
20115;BME280;10218;42.874;25.320;2022-08-19T05:47:12;96846.06;;;23.91;87.53
20115;BME280;10218;42.874;25.320;2022-08-19T05:49:40;96841.41;;;23.92;86.43
20115;BME280;10218;42.874;25.320;2022-08-19T05:52:10;96844.59;;;24.20;82.17
20115;BME280;10218;42.874;25.320;2022-08-19T05:54:39;96845.75;;;24.40;81.28
20115;BME280;10218;42.874;25.320;2022-08-19T05:57:10;96843.66;;;24.62;80.18
20115;BME280;10218;42.874;25.320;2022-08-19T05:59:37;96842.66;;;24.88;77.88
20115;BME280;10218;42.874;25.320;2022-08-19T06:02:06;96835.22;;;24.68;76.05
20115;BME280;10218;42.874;25.320;2022-08-19T06:04:33;96838.81;;;24.94;75.93
20115;BME280;10218;42.874;25.320;2022-08-19T06:07:00;96832.81;;;24.97;74.00
20115;BME280;10218;42.874;25.320;2022-08-19T06:09:29;96841.03;;;24.97;74.26
20115;BME280;10218;42.874;25.320;2022-08-19T06:11:58;96842.12;;;25.42;71.59
20115;BME280;10218;42.874;25.320;2022-08-19T06:14:31;96842.34;;;25.91;68.68
20115;BME280;10218;42.874;25.320;2022-08-19T06:17:01;96838.78;;;26.11;67.54
20115;BME280;10218;42.874;25.320;2022-08-19T06:19:32;96831.31;;;26.21;66.14
20115;BME280;10218;42.874;25.320;2022-08-19T06:22:00;96825.53;;;26.92;63.59
20115;BME280;10218;42.874;25.320;2022-08-19T06:24:28;96835.00;;;26.66;62.54
20115;BME280;10218;42.874;25.320;2022-08-19T06:26:57;96839.09;;;26.68;61.20
20115;BME280;10218;42.874;25.320;2022-08-19T06:29:27;96847.69;;;27.01;60.49
20115;BME280;10218;42.874;25.320;2022-08-19T06:31:57;96852.19;;;27.59;57.21
20115;BME280;10218;42.874;25.320;2022-08-19T06:34:29;96848.69;;;27.54;57.47
20115;BME280;10218;42.874;25.320;2022-08-19T06:37:02;96850.88;;;27.57;57.19
20115;BME280;10218;42.874;25.320;2022-08-19T06:39:32;96850.16;;;28.28;54.59
20115;BME280;10218;42.874;25.320;2022-08-19T06:42:03;96856.81;;;28.22;54.36
20115;BME280;10218;42.874;25.320;2022-08-19T06:44:35;96854.03;;;27.98;54.57
20115;BME280;10218;42.874;25.320;2022-08-19T06:47:04;96846.41;;;28.42;53.59
20115;BME280;10218;42.874;25.320;2022-08-19T06:49:32;96850.28;;;29.03;50.57
20115;BME280;10218;42.874;25.320;2022-08-19T06:52:00;96841.69;;;29.09;49.11
20115;BME280;10218;42.874;25.320;2022-08-19T06:54:28;96843.88;;;28.70;50.65
20115;BME280;10218;42.874;25.320;2022-08-19T06:57:00;96839.44;;;28.92;50.15
20115;BME280;10218;42.874;25.320;2022-08-19T06:59:31;96839.81;;;29.05;50.09
20115;BME280;10218;42.874;25.320;2022-08-19T07:02:03;96837.81;;;28.73;50.92
20115;BME280;10218;42.874;25.320;2022-08-19T07:04:34;96846.06;;;29.10;50.12
20115;BME280;10218;42.874;25.320;2022-08-19T07:07:10;96837.69;;;29.85;48.85
20115;BME280;10218;42.874;25.320;2022-08-19T07:09:42;96845.00;;;30.36;48.24
20115;BME280;10218;42.874;25.320;2022-08-19T07:12:11;96837.00;;;29.93;48.70
20115;BME280;10218;42.874;25.320;2022-08-19T07:14:39;96837.53;;;30.23;48.82
20115;BME280;10218;42.874;25.320;2022-08-19T07:17:11;96842.16;;;30.27;47.33
20115;BME280;10218;42.874;25.320;2022-08-19T07:19:39;96839.16;;;30.78;46.89
20115;BME280;10218;42.874;25.320;2022-08-19T07:22:08;96838.84;;;29.98;48.50
20115;BME280;10218;42.874;25.320;2022-08-19T07:24:37;96837.03;;;30.34;47.58
20115;BME280;10218;42.874;25.320;2022-08-19T07:27:09;96840.25;;;31.05;45.64
20115;BME280;10218;42.874;25.320;2022-08-19T07:29:38;96837.06;;;30.48;46.55
20115;BME280;10218;42.874;25.320;2022-08-19T07:32:05;96853.53;;;29.93;47.31
20115;BME280;10218;42.874;25.320;2022-08-19T07:34:36;96839.09;;;30.42;45.79
20115;BME280;10218;42.874;25.320;2022-08-19T07:37:08;96840.31;;;31.49;43.28
20115;BME280;10218;42.874;25.320;2022-08-19T07:39:36;96843.81;;;31.19;43.76
20115;BME280;10218;42.874;25.320;2022-08-19T07:42:10;96849.66;;;31.04;43.63
20115;BME280;10218;42.874;25.320;2022-08-19T07:44:39;96855.66;;;31.41;41.98
20115;BME280;10218;42.874;25.320;2022-08-19T07:47:07;96853.31;;;31.13;42.54
20115;BME280;10218;42.874;25.320;2022-08-19T07:49:34;96833.94;;;31.93;41.46
20115;BME280;10218;42.874;25.320;2022-08-19T07:52:06;96836.41;;;32.74;40.62
20115;BME280;10218;42.874;25.320;2022-08-19T07:54:35;96858.00;;;31.70;42.19
20115;BME280;10218;42.874;25.320;2022-08-19T07:57:04;96857.72;;;32.64;40.29
20115;BME280;10218;42.874;25.320;2022-08-19T07:59:32;96854.13;;;31.71;41.62
20115;BME280;10218;42.874;25.320;2022-08-19T08:01:59;96849.69;;;32.54;41.46
20115;BME280;10218;42.874;25.320;2022-08-19T08:04:29;96847.06;;;31.88;40.75
20115;BME280;10218;42.874;25.320;2022-08-19T08:07:15;96856.41;;;32.00;41.24
20115;BME280;10218;42.874;25.320;2022-08-19T08:10:04;96847.53;;;32.51;41.36
20115;BME280;10218;42.874;25.320;2022-08-19T08:12:39;96840.66;;;32.97;38.80
20115;BME280;10218;42.874;25.320;2022-08-19T08:15:14;96838.50;;;31.98;40.15
20115;BME280;10218;42.874;25.320;2022-08-19T08:17:45;96832.69;;;32.78;40.23
20115;BME280;10218;42.874;25.320;2022-08-19T08:20:16;96837.44;;;32.47;39.72
20115;BME280;10218;42.874;25.320;2022-08-19T08:22:47;96830.09;;;32.03;40.50
20115;BME280;10218;42.874;25.320;2022-08-19T08:25:35;96839.81;;;32.31;39.95
20115;BME280;10218;42.874;25.320;2022-08-19T08:28:02;96836.63;;;32.86;39.13
20115;BME280;10218;42.874;25.320;2022-08-19T08:30:30;96843.03;;;33.46;37.89
20115;BME280;10218;42.874;25.320;2022-08-19T08:32:59;96840.09;;;33.26;37.83
20115;BME280;10218;42.874;25.320;2022-08-19T08:35:26;96836.31;;;33.82;37.33
20115;BME280;10218;42.874;25.320;2022-08-19T08:37:55;96838.09;;;33.61;37.82
20115;BME280;10218;42.874;25.320;2022-08-19T08:43:29;96839.88;;;34.75;35.98
20115;BME280;10218;42.874;25.320;2022-08-19T08:46:03;96840.59;;;34.17;36.96
20115;BME280;10218;42.874;25.320;2022-08-19T08:51:56;96835.06;;;34.17;36.60
20115;BME280;10218;42.874;25.320;2022-08-19T08:54:37;96839.88;;;33.14;37.62
20115;BME280;10218;42.874;25.320;2022-08-19T08:57:15;96835.81;;;33.80;36.84
20115;BME280;10218;42.874;25.320;2022-08-19T09:00:02;96832.09;;;34.60;36.25
20115;BME280;10218;42.874;25.320;2022-08-19T09:02:44;96822.63;;;34.61;35.23
20115;BME280;10218;42.874;25.320;2022-08-19T09:05:11;96823.81;;;35.10;35.87
20115;BME280;10218;42.874;25.320;2022-08-19T09:10:29;96826.78;;;35.05;35.05
20115;BME280;10218;42.874;25.320;2022-08-19T09:15:38;96828.28;;;35.98;33.31
20115;BME280;10218;42.874;25.320;2022-08-19T09:18:08;96818.56;;;35.38;33.94
20115;BME280;10218;42.874;25.320;2022-08-19T09:20:45;96809.47;;;35.08;34.09
20115;BME280;10218;42.874;25.320;2022-08-19T09:23:24;96820.63;;;36.07;32.91
20115;BME280;10218;42.874;25.320;2022-08-19T09:25:53;96806.22;;;35.27;33.36
20115;BME280;10218;42.874;25.320;2022-08-19T09:28:22;96813.78;;;34.97;34.66
20115;BME280;10218;42.874;25.320;2022-08-19T09:30:51;96809.28;;;34.25;35.62
20115;BME280;10218;42.874;25.320;2022-08-19T09:33:18;96815.13;;;35.74;34.01
20115;BME280;10218;42.874;25.320;2022-08-19T09:35:46;96810.28;;;35.50;33.35
20115;BME280;10218;42.874;25.320;2022-08-19T09:38:13;96807.19;;;35.97;33.66
20115;BME280;10218;42.874;25.320;2022-08-19T09:40:40;96806.63;;;36.03;33.29
20115;BME280;10218;42.874;25.320;2022-08-19T09:43:07;96805.16;;;36.18;33.11
20115;BME280;10218;42.874;25.320;2022-08-19T09:45:37;96804.94;;;36.23;32.63
20115;BME280;10218;42.874;25.320;2022-08-19T09:48:04;96797.50;;;37.40;30.93
20115;BME280;10218;42.874;25.320;2022-08-19T09:50:32;96798.41;;;37.16;31.81
20115;BME280;10218;42.874;25.320;2022-08-19T09:53:00;96802.00;;;37.17;31.07
20115;BME280;10218;42.874;25.320;2022-08-19T09:55:28;96802.28;;;36.88;32.80
20115;BME280;10218;42.874;25.320;2022-08-19T09:57:55;96802.88;;;36.57;32.41
20115;BME280;10218;42.874;25.320;2022-08-19T10:00:22;96795.38;;;36.00;32.89
20115;BME280;10218;42.874;25.320;2022-08-19T10:02:49;96792.16;;;37.91;30.18
20115;BME280;10218;42.874;25.320;2022-08-19T10:05:16;96792.06;;;36.55;31.66
20115;BME280;10218;42.874;25.320;2022-08-19T10:08:02;96788.72;;;35.06;33.88
20115;BME280;10218;42.874;25.320;2022-08-19T10:10:29;96782.22;;;34.81;33.63
20115;BME280;10218;42.874;25.320;2022-08-19T10:12:56;96785.53;;;34.45;34.99
20115;BME280;10218;42.874;25.320;2022-08-19T10:15:24;96782.81;;;36.15;32.96
20115;BME280;10218;42.874;25.320;2022-08-19T10:17:51;96786.19;;;36.57;32.21
20115;BME280;10218;42.874;25.320;2022-08-19T10:20:18;96785.19;;;37.41;31.00
20115;BME280;10218;42.874;25.320;2022-08-19T10:22:45;96781.97;;;38.26;29.51
20115;BME280;10218;42.874;25.320;2022-08-19T10:25:12;96777.13;;;37.80;29.66
20115;BME280;10218;42.874;25.320;2022-08-19T10:27:42;96781.81;;;37.76;30.54
20115;BME280;10218;42.874;25.320;2022-08-19T10:30:11;96774.34;;;39.44;28.14
20115;BME280;10218;42.874;25.320;2022-08-19T10:32:39;96783.91;;;39.62;28.47
20115;BME280;10218;42.874;25.320;2022-08-19T10:35:06;96769.53;;;37.09;31.12
20115;BME280;10218;42.874;25.320;2022-08-19T10:37:37;96782.34;;;36.25;32.26
20115;BME280;10218;42.874;25.320;2022-08-19T10:40:08;96777.16;;;35.78;33.00
20115;BME280;10218;42.874;25.320;2022-08-19T10:42:37;96770.50;;;36.28;32.33
20115;BME280;10218;42.874;25.320;2022-08-19T10:45:05;96774.84;;;34.85;34.27
20115;BME280;10218;42.874;25.320;2022-08-19T10:47:33;96778.25;;;36.10;33.12
20115;BME280;10218;42.874;25.320;2022-08-19T10:50:00;96778.00;;;36.88;31.79
20115;BME280;10218;42.874;25.320;2022-08-19T10:52:48;96776.97;;;35.63;32.91
20115;BME280;10218;42.874;25.320;2022-08-19T10:55:21;96775.56;;;37.94;30.86
20115;BME280;10218;42.874;25.320;2022-08-19T10:58:16;96772.47;;;39.13;28.98
20115;BME280;10218;42.874;25.320;2022-08-19T11:00:51;96767.06;;;35.74;32.85
20115;BME280;10218;42.874;25.320;2022-08-19T11:03:20;96758.81;;;38.41;29.94
20115;BME280;10218;42.874;25.320;2022-08-19T11:06:00;96755.50;;;38.20;30.02
20115;BME280;10218;42.874;25.320;2022-08-19T11:08:28;96758.66;;;38.34;29.91
20115;BME280;10218;42.874;25.320;2022-08-19T11:10:59;96759.00;;;38.01;29.46
20115;BME280;10218;42.874;25.320;2022-08-19T11:13:34;96756.28;;;38.68;29.06
20115;BME280;10218;42.874;25.320;2022-08-19T11:16:15;96759.25;;;35.55;32.01
20115;BME280;10218;42.874;25.320;2022-08-19T11:18:47;96755.81;;;38.66;29.32
20115;BME280;10218;42.874;25.320;2022-08-19T11:23:49;96760.16;;;40.40;27.13
20115;BME280;10218;42.874;25.320;2022-08-19T11:26:18;96756.84;;;41.76;25.66
20115;BME280;10218;42.874;25.320;2022-08-19T11:28:46;96753.69;;;41.15;25.92
20115;BME280;10218;42.874;25.320;2022-08-19T11:31:18;96747.84;;;40.97;25.53
20115;BME280;10218;42.874;25.320;2022-08-19T11:33:47;96742.53;;;38.94;26.82
20115;BME280;10218;42.874;25.320;2022-08-19T11:36:17;96740.13;;;38.77;27.10
20115;BME280;10218;42.874;25.320;2022-08-19T11:38:45;96740.34;;;37.90;28.60
20115;BME280;10218;42.874;25.320;2022-08-19T11:41:17;96734.62;;;41.24;25.07
20115;BME280;10218;42.874;25.320;2022-08-19T11:43:44;96742.00;;;39.85;26.40
20115;BME280;10218;42.874;25.320;2022-08-19T11:46:13;96729.22;;;38.21;28.25
20115;BME280;10218;42.874;25.320;2022-08-19T11:48:41;96729.28;;;38.40;28.68
20115;BME280;10218;42.874;25.320;2022-08-19T11:51:11;96738.94;;;39.93;27.68
20115;BME280;10218;42.874;25.320;2022-08-19T11:53:39;96736.59;;;40.41;26.36
20115;BME280;10218;42.874;25.320;2022-08-19T11:56:08;96733.19;;;41.40;25.26
20115;BME280;10218;42.874;25.320;2022-08-19T11:58:36;96732.03;;;38.72;27.75
20115;BME280;10218;42.874;25.320;2022-08-19T12:01:08;96719.97;;;38.68;27.62
20115;BME280;10218;42.874;25.320;2022-08-19T12:03:36;96738.59;;;40.67;25.88
20115;BME280;10218;42.874;25.320;2022-08-19T12:06:09;96715.69;;;41.47;23.85
20115;BME280;10218;42.874;25.320;2022-08-19T12:08:37;96717.56;;;39.40;25.63
20115;BME280;10218;42.874;25.320;2022-08-19T12:11:05;96717.94;;;38.65;26.91
20115;BME280;10218;42.874;25.320;2022-08-19T12:13:34;96715.22;;;38.68;27.73
20115;BME280;10218;42.874;25.320;2022-08-19T12:16:23;96714.22;;;37.51;29.20
20115;BME280;10218;42.874;25.320;2022-08-19T12:18:51;96710.56;;;38.57;28.13
20115;BME280;10218;42.874;25.320;2022-08-19T12:21:22;96710.09;;;39.66;26.67
20115;BME280;10218;42.874;25.320;2022-08-19T12:23:50;96710.72;;;39.79;27.12
20115;BME280;10218;42.874;25.320;2022-08-19T12:26:25;96703.03;;;41.30;25.68
20115;BME280;10218;42.874;25.320;2022-08-19T12:28:53;96689.34;;;40.92;25.13
20115;BME280;10218;42.874;25.320;2022-08-19T12:31:20;96713.81;;;40.42;26.17
20115;BME280;10218;42.874;25.320;2022-08-19T12:33:48;96709.37;;;39.92;26.19
20115;BME280;10218;42.874;25.320;2022-08-19T12:36:16;96695.34;;;40.15;26.06
20115;BME280;10218;42.874;25.320;2022-08-19T12:38:45;96701.59;;;39.02;27.11
20115;BME280;10218;42.874;25.320;2022-08-19T12:41:15;96692.59;;;39.73;26.61
20115;BME280;10218;42.874;25.320;2022-08-19T12:43:45;96699.97;;;40.53;26.21
20115;BME280;10218;42.874;25.320;2022-08-19T12:46:12;96693.87;;;39.75;26.57
20115;BME280;10218;42.874;25.320;2022-08-19T12:48:40;96689.00;;;40.67;25.33
20115;BME280;10218;42.874;25.320;2022-08-19T12:51:12;96700.63;;;40.43;25.61
20115;BME280;10218;42.874;25.320;2022-08-19T12:53:40;96692.81;;;41.12;24.81
20115;BME280;10218;42.874;25.320;2022-08-19T12:56:09;96698.84;;;41.47;24.46
20115;BME280;10218;42.874;25.320;2022-08-19T12:58:37;96691.59;;;40.27;25.08
20115;BME280;10218;42.874;25.320;2022-08-19T13:01:14;96690.38;;;40.54;24.97
20115;BME280;10218;42.874;25.320;2022-08-19T13:03:41;96695.44;;;42.05;23.23
20115;BME280;10218;42.874;25.320;2022-08-19T13:06:10;96697.78;;;41.96;23.22
20115;BME280;10218;42.874;25.320;2022-08-19T13:08:37;96682.66;;;42.11;23.05
20115;BME280;10218;42.874;25.320;2022-08-19T13:11:15;96681.62;;;42.91;22.11
20115;BME280;10218;42.874;25.320;2022-08-19T13:13:46;96682.16;;;41.61;24.03